sensor_id;sensor_type;location;lat;lon;timestamp;P1;durP1;ratioP1;P2;durP2;ratioP2
54795;SDS011;40693;43.884;20.340;2023-04-21T00:01:36;17.70;;;12.27;;
54795;SDS011;40693;43.884;20.340;2023-04-21T00:04:03;16.75;;;11.50;;
54795;SDS011;40693;43.884;20.340;2023-04-21T00:06:29;16.52;;;11.35;;
54795;SDS011;40693;43.884;20.340;2023-04-21T00:08:55;17.50;;;12.23;;
54795;SDS011;40693;43.884;20.340;2023-04-21T00:11:20;14.27;;;10.30;;
54795;SDS011;40693;43.884;20.340;2023-04-21T00:13:46;16.17;;;11.55;;
54795;SDS011;40693;43.884;20.340;2023-04-21T00:16:12;18.95;;;10.95;;
54795;SDS011;40693;43.884;20.340;2023-04-21T00:18:37;16.02;;;11.50;;
54795;SDS011;40693;43.884;20.340;2023-04-21T00:21:03;20.70;;;12.70;;
54795;SDS011;40693;43.884;20.340;2023-04-21T00:23:29;20.67;;;13.68;;
54795;SDS011;40693;43.884;20.340;2023-04-21T00:25:55;17.08;;;12.07;;
54795;SDS011;40693;43.884;20.340;2023-04-21T00:28:20;19.83;;;13.25;;
54795;SDS011;40693;43.884;20.340;2023-04-21T00:30:46;19.50;;;13.23;;
54795;SDS011;40693;43.884;20.340;2023-04-21T00:33:12;17.70;;;12.18;;
54795;SDS011;40693;43.884;20.340;2023-04-21T00:35:37;18.35;;;13.15;;
54795;SDS011;40693;43.884;20.340;2023-04-21T00:38:03;18.55;;;13.55;;
54795;SDS011;40693;43.884;20.340;2023-04-21T00:40:29;20.10;;;13.23;;
54795;SDS011;40693;43.884;20.340;2023-04-21T00:42:54;17.45;;;12.10;;
54795;SDS011;40693;43.884;20.340;2023-04-21T00:45:20;20.00;;;12.65;;
54795;SDS011;40693;43.884;20.340;2023-04-21T00:47:46;18.15;;;12.25;;
54795;SDS011;40693;43.884;20.340;2023-04-21T00:50:13;19.83;;;13.15;;
54795;SDS011;40693;43.884;20.340;2023-04-21T00:52:39;16.17;;;12.55;;
54795;SDS011;40693;43.884;20.340;2023-04-21T00:55:07;20.70;;;14.63;;
54795;SDS011;40693;43.884;20.340;2023-04-21T00:57:34;22.63;;;15.93;;
54795;SDS011;40693;43.884;20.340;2023-04-21T01:00:04;26.17;;;16.55;;
54795;SDS011;40693;43.884;20.340;2023-04-21T01:02:33;21.35;;;15.48;;
54795;SDS011;40693;43.884;20.340;2023-04-21T01:05:00;19.88;;;14.48;;
54795;SDS011;40693;43.884;20.340;2023-04-21T01:07:28;22.95;;;15.02;;
54795;SDS011;40693;43.884;20.340;2023-04-21T01:09:54;26.92;;;13.07;;
54795;SDS011;40693;43.884;20.340;2023-04-21T01:12:20;14.73;;;12.93;;
54795;SDS011;40693;43.884;20.340;2023-04-21T01:14:45;18.63;;;12.10;;
54795;SDS011;40693;43.884;20.340;2023-04-21T01:17:11;17.45;;;12.75;;
54795;SDS011;40693;43.884;20.340;2023-04-21T01:19:40;16.55;;;11.85;;
54795;SDS011;40693;43.884;20.340;2023-04-21T01:22:07;19.63;;;12.15;;
54795;SDS011;40693;43.884;20.340;2023-04-21T01:24:44;24.58;;;13.55;;
54795;SDS011;40693;43.884;20.340;2023-04-21T01:27:12;19.45;;;14.38;;
54795;SDS011;40693;43.884;20.340;2023-04-21T01:29:40;17.23;;;12.63;;
54795;SDS011;40693;43.884;20.340;2023-04-21T01:32:11;23.17;;;14.93;;
54795;SDS011;40693;43.884;20.340;2023-04-21T01:34:39;22.88;;;15.75;;
54795;SDS011;40693;43.884;20.340;2023-04-21T01:37:09;18.15;;;13.38;;
54795;SDS011;40693;43.884;20.340;2023-04-21T01:39:38;22.83;;;15.32;;
54795;SDS011;40693;43.884;20.340;2023-04-21T01:42:09;21.55;;;15.65;;
54795;SDS011;40693;43.884;20.340;2023-04-21T01:44:35;25.98;;;15.93;;
54795;SDS011;40693;43.884;20.340;2023-04-21T01:47:01;23.60;;;14.75;;
54795;SDS011;40693;43.884;20.340;2023-04-21T01:49:27;20.95;;;13.55;;
54795;SDS011;40693;43.884;20.340;2023-04-21T01:51:53;19.70;;;14.77;;
54795;SDS011;40693;43.884;20.340;2023-04-21T01:54:18;21.17;;;14.05;;
54795;SDS011;40693;43.884;20.340;2023-04-21T01:56:45;18.80;;;12.82;;
54795;SDS011;40693;43.884;20.340;2023-04-21T01:59:11;20.70;;;13.70;;
54795;SDS011;40693;43.884;20.340;2023-04-21T02:01:37;17.60;;;13.10;;
54795;SDS011;40693;43.884;20.340;2023-04-21T02:04:03;22.73;;;14.60;;
54795;SDS011;40693;43.884;20.340;2023-04-21T02:06:29;22.65;;;14.32;;
54795;SDS011;40693;43.884;20.340;2023-04-21T02:08:57;23.67;;;13.18;;
54795;SDS011;40693;43.884;20.340;2023-04-21T02:11:23;18.80;;;12.85;;
54795;SDS011;40693;43.884;20.340;2023-04-21T02:13:53;22.75;;;14.60;;
54795;SDS011;40693;43.884;20.340;2023-04-21T02:16:19;16.65;;;13.13;;
54795;SDS011;40693;43.884;20.340;2023-04-21T02:18:50;19.25;;;12.93;;
54795;SDS011;40693;43.884;20.340;2023-04-21T02:21:19;19.23;;;12.82;;
54795;SDS011;40693;43.884;20.340;2023-04-21T02:23:45;18.48;;;13.68;;
54795;SDS011;40693;43.884;20.340;2023-04-21T02:26:11;20.10;;;14.23;;
54795;SDS011;40693;43.884;20.340;2023-04-21T02:28:37;22.38;;;14.88;;
54795;SDS011;40693;43.884;20.340;2023-04-21T02:31:02;21.10;;;15.50;;
54795;SDS011;40693;43.884;20.340;2023-04-21T02:33:28;16.10;;;13.45;;
54795;SDS011;40693;43.884;20.340;2023-04-21T02:35:54;19.52;;;13.43;;
54795;SDS011;40693;43.884;20.340;2023-04-21T02:38:20;22.90;;;14.85;;
54795;SDS011;40693;43.884;20.340;2023-04-21T02:40:45;21.10;;;13.48;;
54795;SDS011;40693;43.884;20.340;2023-04-21T02:43:12;19.65;;;13.52;;
54795;SDS011;40693;43.884;20.340;2023-04-21T02:45:38;21.00;;;13.60;;
54795;SDS011;40693;43.884;20.340;2023-04-21T02:48:04;21.75;;;13.57;;
54795;SDS011;40693;43.884;20.340;2023-04-21T02:50:30;19.67;;;13.98;;
54795;SDS011;40693;43.884;20.340;2023-04-21T02:52:56;21.20;;;14.90;;
54795;SDS011;40693;43.884;20.340;2023-04-21T02:55:22;21.77;;;14.50;;
54795;SDS011;40693;43.884;20.340;2023-04-21T02:57:47;26.10;;;17.45;;
54795;SDS011;40693;43.884;20.340;2023-04-21T03:00:13;66.68;;;43.65;;
54795;SDS011;40693;43.884;20.340;2023-04-21T03:02:39;73.25;;;44.05;;
54795;SDS011;40693;43.884;20.340;2023-04-21T03:05:06;52.00;;;36.72;;
54795;SDS011;40693;43.884;20.340;2023-04-21T03:07:33;43.13;;;28.85;;
54795;SDS011;40693;43.884;20.340;2023-04-21T03:09:58;30.58;;;23.23;;
54795;SDS011;40693;43.884;20.340;2023-04-21T03:12:24;23.98;;;14.57;;
54795;SDS011;40693;43.884;20.340;2023-04-21T03:14:50;20.02;;;14.50;;
54795;SDS011;40693;43.884;20.340;2023-04-21T03:17:15;26.65;;;15.98;;
54795;SDS011;40693;43.884;20.340;2023-04-21T03:19:44;21.35;;;14.43;;
54795;SDS011;40693;43.884;20.340;2023-04-21T03:22:09;18.92;;;14.00;;
54795;SDS011;40693;43.884;20.340;2023-04-21T03:24:35;26.70;;;15.52;;
54795;SDS011;40693;43.884;20.340;2023-04-21T03:27:01;23.80;;;15.85;;
54795;SDS011;40693;43.884;20.340;2023-04-21T03:29:26;19.83;;;14.20;;
54795;SDS011;40693;43.884;20.340;2023-04-21T03:31:52;23.60;;;16.70;;
54795;SDS011;40693;43.884;20.340;2023-04-21T03:34:18;28.00;;;17.80;;
54795;SDS011;40693;43.884;20.340;2023-04-21T03:36:43;28.02;;;16.20;;
54795;SDS011;40693;43.884;20.340;2023-04-21T03:39:09;24.90;;;15.75;;
54795;SDS011;40693;43.884;20.340;2023-04-21T03:41:35;19.35;;;13.80;;
54795;SDS011;40693;43.884;20.340;2023-04-21T03:44:01;21.65;;;13.70;;
54795;SDS011;40693;43.884;20.340;2023-04-21T03:46:26;19.60;;;13.70;;
54795;SDS011;40693;43.884;20.340;2023-04-21T03:48:52;21.63;;;15.00;;
54795;SDS011;40693;43.884;20.340;2023-04-21T03:51:18;21.45;;;14.63;;
54795;SDS011;40693;43.884;20.340;2023-04-21T03:53:43;20.48;;;14.60;;
54795;SDS011;40693;43.884;20.340;2023-04-21T03:56:09;18.40;;;13.27;;
54795;SDS011;40693;43.884;20.340;2023-04-21T03:58:35;25.02;;;15.55;;
54795;SDS011;40693;43.884;20.340;2023-04-21T04:01:01;20.25;;;14.18;;
54795;SDS011;40693;43.884;20.340;2023-04-21T04:03:28;23.23;;;15.43;;
54795;SDS011;40693;43.884;20.340;2023-04-21T04:05:54;32.25;;;16.98;;
54795;SDS011;40693;43.884;20.340;2023-04-21T04:08:20;25.45;;;17.67;;
54795;SDS011;40693;43.884;20.340;2023-04-21T04:10:45;26.58;;;16.70;;
54795;SDS011;40693;43.884;20.340;2023-04-21T04:13:11;24.00;;;15.70;;
54795;SDS011;40693;43.884;20.340;2023-04-21T04:15:37;21.95;;;16.25;;
54795;SDS011;40693;43.884;20.340;2023-04-21T04:18:03;24.25;;;16.60;;
54795;SDS011;40693;43.884;20.340;2023-04-21T04:20:28;24.63;;;17.00;;
54795;SDS011;40693;43.884;20.340;2023-04-21T04:22:54;29.35;;;18.75;;
54795;SDS011;40693;43.884;20.340;2023-04-21T04:25:20;28.42;;;18.48;;
54795;SDS011;40693;43.884;20.340;2023-04-21T04:27:46;21.92;;;16.10;;
54795;SDS011;40693;43.884;20.340;2023-04-21T04:30:14;25.45;;;16.05;;
54795;SDS011;40693;43.884;20.340;2023-04-21T04:32:40;24.42;;;16.10;;
54795;SDS011;40693;43.884;20.340;2023-04-21T04:35:07;24.45;;;17.58;;
54795;SDS011;40693;43.884;20.340;2023-04-21T04:37:36;32.63;;;20.05;;
54795;SDS011;40693;43.884;20.340;2023-04-21T04:40:03;24.45;;;17.58;;
54795;SDS011;40693;43.884;20.340;2023-04-21T04:42:31;26.25;;;16.05;;
54795;SDS011;40693;43.884;20.340;2023-04-21T04:45:00;25.13;;;15.27;;
54795;SDS011;40693;43.884;20.340;2023-04-21T04:47:27;20.77;;;16.50;;
54795;SDS011;40693;43.884;20.340;2023-04-21T04:49:54;21.52;;;14.15;;
54795;SDS011;40693;43.884;20.340;2023-04-21T04:52:19;21.83;;;14.93;;
54795;SDS011;40693;43.884;20.340;2023-04-21T04:54:45;21.75;;;15.65;;
54795;SDS011;40693;43.884;20.340;2023-04-21T04:57:11;23.63;;;16.63;;
54795;SDS011;40693;43.884;20.340;2023-04-21T04:59:36;23.73;;;16.23;;
54795;SDS011;40693;43.884;20.340;2023-04-21T05:02:02;25.10;;;18.15;;
54795;SDS011;40693;43.884;20.340;2023-04-21T05:04:28;24.48;;;17.60;;
54795;SDS011;40693;43.884;20.340;2023-04-21T05:06:54;25.63;;;15.93;;
54795;SDS011;40693;43.884;20.340;2023-04-21T05:09:19;28.55;;;19.52;;
54795;SDS011;40693;43.884;20.340;2023-04-21T05:11:45;25.48;;;17.50;;
54795;SDS011;40693;43.884;20.340;2023-04-21T05:14:11;29.23;;;19.15;;
54795;SDS011;40693;43.884;20.340;2023-04-21T05:16:37;26.88;;;18.35;;
54795;SDS011;40693;43.884;20.340;2023-04-21T05:19:02;25.85;;;16.80;;
54795;SDS011;40693;43.884;20.340;2023-04-21T05:21:28;26.98;;;17.77;;
54795;SDS011;40693;43.884;20.340;2023-04-21T05:23:55;26.17;;;18.67;;
54795;SDS011;40693;43.884;20.340;2023-04-21T05:26:25;28.70;;;18.23;;
54795;SDS011;40693;43.884;20.340;2023-04-21T05:28:52;25.67;;;17.63;;
54795;SDS011;40693;43.884;20.340;2023-04-21T05:31:25;24.42;;;16.80;;
54795;SDS011;40693;43.884;20.340;2023-04-21T05:33:51;24.95;;;16.45;;
54795;SDS011;40693;43.884;20.340;2023-04-21T05:36:16;23.00;;;16.70;;
54795;SDS011;40693;43.884;20.340;2023-04-21T05:38:44;26.45;;;16.08;;
54795;SDS011;40693;43.884;20.340;2023-04-21T05:41:10;26.30;;;16.52;;
54795;SDS011;40693;43.884;20.340;2023-04-21T05:43:36;24.60;;;15.40;;
54795;SDS011;40693;43.884;20.340;2023-04-21T05:46:02;23.73;;;15.57;;
54795;SDS011;40693;43.884;20.340;2023-04-21T05:48:32;22.88;;;16.70;;
54795;SDS011;40693;43.884;20.340;2023-04-21T05:51:08;24.85;;;14.93;;
54795;SDS011;40693;43.884;20.340;2023-04-21T05:53:37;16.73;;;12.20;;
54795;SDS011;40693;43.884;20.340;2023-04-21T05:56:04;19.52;;;13.38;;
54795;SDS011;40693;43.884;20.340;2023-04-21T05:58:30;20.75;;;14.00;;
54795;SDS011;40693;43.884;20.340;2023-04-21T06:00:57;22.88;;;13.65;;
54795;SDS011;40693;43.884;20.340;2023-04-21T06:03:23;18.88;;;13.77;;
54795;SDS011;40693;43.884;20.340;2023-04-21T06:05:52;16.65;;;12.20;;
54795;SDS011;40693;43.884;20.340;2023-04-21T06:08:19;23.00;;;13.43;;
54795;SDS011;40693;43.884;20.340;2023-04-21T06:10:44;20.30;;;12.82;;
54795;SDS011;40693;43.884;20.340;2023-04-21T06:13:10;19.40;;;12.68;;
54795;SDS011;40693;43.884;20.340;2023-04-21T06:15:36;18.05;;;12.82;;
54795;SDS011;40693;43.884;20.340;2023-04-21T06:18:02;21.38;;;12.63;;
54795;SDS011;40693;43.884;20.340;2023-04-21T06:20:27;21.42;;;12.70;;
54795;SDS011;40693;43.884;20.340;2023-04-21T06:22:53;17.23;;;12.23;;
54795;SDS011;40693;43.884;20.340;2023-04-21T06:25:19;15.68;;;12.00;;
54795;SDS011;40693;43.884;20.340;2023-04-21T06:27:45;21.83;;;12.93;;
54795;SDS011;40693;43.884;20.340;2023-04-21T06:30:10;18.60;;;13.00;;
54795;SDS011;40693;43.884;20.340;2023-04-21T06:32:36;17.65;;;11.85;;
54795;SDS011;40693;43.884;20.340;2023-04-21T06:35:02;21.35;;;12.63;;
54795;SDS011;40693;43.884;20.340;2023-04-21T06:37:28;16.20;;;10.38;;
54795;SDS011;40693;43.884;20.340;2023-04-21T06:39:54;11.63;;;8.23;;
54795;SDS011;40693;43.884;20.340;2023-04-21T06:42:19;12.95;;;9.10;;
54795;SDS011;40693;43.884;20.340;2023-04-21T06:44:45;11.82;;;8.50;;
54795;SDS011;40693;43.884;20.340;2023-04-21T06:47:11;15.90;;;9.25;;
54795;SDS011;40693;43.884;20.340;2023-04-21T06:49:36;14.18;;;8.15;;
54795;SDS011;40693;43.884;20.340;2023-04-21T06:52:02;16.25;;;8.70;;
54795;SDS011;40693;43.884;20.340;2023-04-21T06:54:28;12.80;;;8.25;;
54795;SDS011;40693;43.884;20.340;2023-04-21T06:56:54;14.80;;;8.55;;
54795;SDS011;40693;43.884;20.340;2023-04-21T06:59:21;11.70;;;8.65;;
54795;SDS011;40693;43.884;20.340;2023-04-21T07:01:47;11.07;;;8.40;;
54795;SDS011;40693;43.884;20.340;2023-04-21T07:04:16;18.40;;;7.57;;
54795;SDS011;40693;43.884;20.340;2023-04-21T07:06:42;11.70;;;7.45;;
54795;SDS011;40693;43.884;20.340;2023-04-21T07:09:08;12.02;;;6.80;;
54795;SDS011;40693;43.884;20.340;2023-04-21T07:11:34;8.93;;;6.30;;
54795;SDS011;40693;43.884;20.340;2023-04-21T07:13:59;9.75;;;7.35;;
54795;SDS011;40693;43.884;20.340;2023-04-21T07:16:26;12.02;;;7.85;;
54795;SDS011;40693;43.884;20.340;2023-04-21T07:18:53;9.90;;;6.60;;
54795;SDS011;40693;43.884;20.340;2023-04-21T07:21:18;8.85;;;7.53;;
54795;SDS011;40693;43.884;20.340;2023-04-21T07:23:44;9.27;;;7.18;;
54795;SDS011;40693;43.884;20.340;2023-04-21T07:26:10;9.75;;;7.05;;
54795;SDS011;40693;43.884;20.340;2023-04-21T07:28:36;10.07;;;6.38;;
54795;SDS011;40693;43.884;20.340;2023-04-21T07:31:04;9.02;;;7.43;;
54795;SDS011;40693;43.884;20.340;2023-04-21T07:33:30;9.82;;;7.15;;
54795;SDS011;40693;43.884;20.340;2023-04-21T07:35:56;10.15;;;6.85;;
54795;SDS011;40693;43.884;20.340;2023-04-21T07:38:23;12.65;;;7.13;;
54795;SDS011;40693;43.884;20.340;2023-04-21T07:40:49;8.95;;;7.05;;
54795;SDS011;40693;43.884;20.340;2023-04-21T07:43:15;8.57;;;6.40;;
54795;SDS011;40693;43.884;20.340;2023-04-21T07:45:41;11.38;;;7.10;;
54795;SDS011;40693;43.884;20.340;2023-04-21T07:48:06;17.23;;;7.13;;
54795;SDS011;40693;43.884;20.340;2023-04-21T07:50:32;9.82;;;6.63;;
54795;SDS011;40693;43.884;20.340;2023-04-21T07:53:00;10.07;;;7.53;;
54795;SDS011;40693;43.884;20.340;2023-04-21T07:55:26;11.35;;;7.43;;
54795;SDS011;40693;43.884;20.340;2023-04-21T07:57:52;10.68;;;6.68;;
54795;SDS011;40693;43.884;20.340;2023-04-21T08:00:19;11.18;;;6.47;;
54795;SDS011;40693;43.884;20.340;2023-04-21T08:02:45;12.98;;;6.50;;
54795;SDS011;40693;43.884;20.340;2023-04-21T08:05:10;11.90;;;7.43;;
54795;SDS011;40693;43.884;20.340;2023-04-21T08:07:36;10.68;;;7.00;;
54795;SDS011;40693;43.884;20.340;2023-04-21T08:10:04;14.82;;;7.85;;
54795;SDS011;40693;43.884;20.340;2023-04-21T08:12:30;10.07;;;6.88;;
54795;SDS011;40693;43.884;20.340;2023-04-21T08:14:56;8.90;;;6.80;;
54795;SDS011;40693;43.884;20.340;2023-04-21T08:17:21;10.18;;;6.45;;
54795;SDS011;40693;43.884;20.340;2023-04-21T08:19:47;9.90;;;6.65;;
54795;SDS011;40693;43.884;20.340;2023-04-21T08:22:13;13.15;;;8.10;;
54795;SDS011;40693;43.884;20.340;2023-04-21T08:24:39;10.10;;;7.03;;
54795;SDS011;40693;43.884;20.340;2023-04-21T08:27:04;10.23;;;6.80;;
54795;SDS011;40693;43.884;20.340;2023-04-21T08:29:30;9.70;;;6.68;;
54795;SDS011;40693;43.884;20.340;2023-04-21T08:31:56;9.82;;;6.82;;
54795;SDS011;40693;43.884;20.340;2023-04-21T08:34:21;9.13;;;7.35;;
54795;SDS011;40693;43.884;20.340;2023-04-21T08:36:47;14.18;;;7.70;;
54795;SDS011;40693;43.884;20.340;2023-04-21T08:39:13;8.50;;;6.05;;
54795;SDS011;40693;43.884;20.340;2023-04-21T08:41:40;13.35;;;7.25;;
54795;SDS011;40693;43.884;20.340;2023-04-21T08:44:06;12.65;;;7.50;;
54795;SDS011;40693;43.884;20.340;2023-04-21T08:46:32;11.32;;;7.65;;
54795;SDS011;40693;43.884;20.340;2023-04-21T08:49:00;11.88;;;6.57;;
54795;SDS011;40693;43.884;20.340;2023-04-21T08:51:26;15.43;;;9.32;;
54795;SDS011;40693;43.884;20.340;2023-04-21T08:53:54;11.98;;;6.95;;
54795;SDS011;40693;43.884;20.340;2023-04-21T08:56:20;12.70;;;6.63;;
54795;SDS011;40693;43.884;20.340;2023-04-21T08:58:49;8.00;;;6.35;;
54795;SDS011;40693;43.884;20.340;2023-04-21T09:01:15;9.52;;;5.78;;
54795;SDS011;40693;43.884;20.340;2023-04-21T09:03:41;11.52;;;7.07;;
54795;SDS011;40693;43.884;20.340;2023-04-21T09:06:07;11.60;;;6.20;;
54795;SDS011;40693;43.884;20.340;2023-04-21T09:08:35;11.88;;;7.50;;
54795;SDS011;40693;43.884;20.340;2023-04-21T09:11:02;15.23;;;7.28;;
54795;SDS011;40693;43.884;20.340;2023-04-21T09:13:32;10.50;;;6.28;;
54795;SDS011;40693;43.884;20.340;2023-04-21T09:16:00;13.35;;;6.57;;
54795;SDS011;40693;43.884;20.340;2023-04-21T09:18:28;22.67;;;7.10;;
54795;SDS011;40693;43.884;20.340;2023-04-21T09:21:10;12.35;;;7.28;;
54795;SDS011;40693;43.884;20.340;2023-04-21T09:23:49;10.85;;;6.47;;
54795;SDS011;40693;43.884;20.340;2023-04-21T09:26:17;19.63;;;7.50;;
54795;SDS011;40693;43.884;20.340;2023-04-21T09:28:44;10.65;;;6.50;;
54795;SDS011;40693;43.884;20.340;2023-04-21T09:31:15;13.05;;;6.38;;
54795;SDS011;40693;43.884;20.340;2023-04-21T09:33:51;10.57;;;7.13;;
54795;SDS011;40693;43.884;20.340;2023-04-21T09:36:19;11.77;;;6.30;;
54795;SDS011;40693;43.884;20.340;2023-04-21T09:39:04;13.48;;;7.35;;
54795;SDS011;40693;43.884;20.340;2023-04-21T09:41:32;13.23;;;5.90;;
54795;SDS011;40693;43.884;20.340;2023-04-21T09:43:58;11.43;;;6.18;;
54795;SDS011;40693;43.884;20.340;2023-04-21T09:46:28;10.25;;;7.25;;
54795;SDS011;40693;43.884;20.340;2023-04-21T09:48:59;13.23;;;7.45;;
54795;SDS011;40693;43.884;20.340;2023-04-21T09:51:25;12.60;;;6.45;;
54795;SDS011;40693;43.884;20.340;2023-04-21T09:53:52;18.20;;;7.45;;
54795;SDS011;40693;43.884;20.340;2023-04-21T09:56:23;14.52;;;6.60;;
54795;SDS011;40693;43.884;20.340;2023-04-21T09:58:53;11.80;;;6.68;;
54795;SDS011;40693;43.884;20.340;2023-04-21T10:01:23;12.60;;;7.85;;
54795;SDS011;40693;43.884;20.340;2023-04-21T10:03:51;14.38;;;7.38;;
54795;SDS011;40693;43.884;20.340;2023-04-21T10:06:17;11.68;;;6.53;;
54795;SDS011;40693;43.884;20.340;2023-04-21T10:08:43;12.00;;;7.55;;
54795;SDS011;40693;43.884;20.340;2023-04-21T10:11:10;13.95;;;6.40;;
54795;SDS011;40693;43.884;20.340;2023-04-21T10:13:37;15.40;;;6.72;;
54795;SDS011;40693;43.884;20.340;2023-04-21T10:16:07;13.85;;;7.60;;
54795;SDS011;40693;43.884;20.340;2023-04-21T10:18:37;16.83;;;7.38;;
54795;SDS011;40693;43.884;20.340;2023-04-21T10:21:07;11.38;;;7.47;;
54795;SDS011;40693;43.884;20.340;2023-04-21T10:23:52;12.13;;;7.03;;
54795;SDS011;40693;43.884;20.340;2023-04-21T10:29:03;14.00;;;7.90;;
54795;SDS011;40693;43.884;20.340;2023-04-21T10:31:33;15.18;;;8.48;;
54795;SDS011;40693;43.884;20.340;2023-04-21T10:41:56;13.07;;;8.15;;
54795;SDS011;40693;43.884;20.340;2023-04-21T10:44:22;13.02;;;8.40;;
54795;SDS011;40693;43.884;20.340;2023-04-21T10:46:52;11.02;;;7.70;;
54795;SDS011;40693;43.884;20.340;2023-04-21T10:49:22;12.05;;;7.45;;
54795;SDS011;40693;43.884;20.340;2023-04-21T10:55:12;15.80;;;8.48;;
54795;SDS011;40693;43.884;20.340;2023-04-21T10:57:15;10.73;;;7.75;;
54795;SDS011;40693;43.884;20.340;2023-04-21T10:59:43;11.85;;;7.60;;
54795;SDS011;40693;43.884;20.340;2023-04-21T11:02:10;14.75;;;7.30;;
54795;SDS011;40693;43.884;20.340;2023-04-21T11:04:37;15.18;;;7.28;;
54795;SDS011;40693;43.884;20.340;2023-04-21T11:09:35;9.23;;;7.13;;
54795;SDS011;40693;43.884;20.340;2023-04-21T11:12:03;18.63;;;6.95;;
54795;SDS011;40693;43.884;20.340;2023-04-21T11:14:34;14.43;;;7.10;;
54795;SDS011;40693;43.884;20.340;2023-04-21T11:17:09;12.68;;;7.55;;
54795;SDS011;40693;43.884;20.340;2023-04-21T11:19:37;10.77;;;7.00;;
54795;SDS011;40693;43.884;20.340;2023-04-21T11:22:04;14.32;;;6.72;;
54795;SDS011;40693;43.884;20.340;2023-04-21T11:24:30;13.50;;;6.50;;
54795;SDS011;40693;43.884;20.340;2023-04-21T11:26:56;14.00;;;7.78;;
54795;SDS011;40693;43.884;20.340;2023-04-21T11:29:22;17.05;;;10.10;;
54795;SDS011;40693;43.884;20.340;2023-04-21T11:31:48;13.68;;;7.55;;
54795;SDS011;40693;43.884;20.340;2023-04-21T11:34:15;10.85;;;6.57;;
54795;SDS011;40693;43.884;20.340;2023-04-21T11:36:45;9.88;;;5.95;;
54795;SDS011;40693;43.884;20.340;2023-04-21T11:39:12;12.75;;;7.03;;
54795;SDS011;40693;43.884;20.340;2023-04-21T11:41:43;12.82;;;7.13;;
54795;SDS011;40693;43.884;20.340;2023-04-21T11:44:11;19.55;;;7.35;;
54795;SDS011;40693;43.884;20.340;2023-04-21T11:46:44;11.27;;;7.68;;
54795;SDS011;40693;43.884;20.340;2023-04-21T11:49:11;13.13;;;7.30;;
54795;SDS011;40693;43.884;20.340;2023-04-21T11:51:38;16.92;;;8.07;;
54795;SDS011;40693;43.884;20.340;2023-04-21T11:54:06;10.73;;;7.68;;
54795;SDS011;40693;43.884;20.340;2023-04-21T11:56:39;18.52;;;9.02;;
54795;SDS011;40693;43.884;20.340;2023-04-21T11:59:07;12.77;;;8.05;;
54795;SDS011;40693;43.884;20.340;2023-04-21T12:01:33;9.95;;;7.70;;
54795;SDS011;40693;43.884;20.340;2023-04-21T12:04:01;15.50;;;7.95;;
54795;SDS011;40693;43.884;20.340;2023-04-21T12:06:27;13.75;;;8.57;;
54795;SDS011;40693;43.884;20.340;2023-04-21T12:09:01;12.30;;;8.18;;
54795;SDS011;40693;43.884;20.340;2023-04-21T12:11:28;15.65;;;9.48;;
54795;SDS011;40693;43.884;20.340;2023-04-21T12:13:57;21.52;;;13.52;;
54795;SDS011;40693;43.884;20.340;2023-04-21T12:16:27;13.02;;;8.18;;
54795;SDS011;40693;43.884;20.340;2023-04-21T12:18:54;14.57;;;7.70;;
54795;SDS011;40693;43.884;20.340;2023-04-21T12:21:20;10.60;;;8.32;;
54795;SDS011;40693;43.884;20.340;2023-04-21T12:23:51;11.30;;;6.75;;
54795;SDS011;40693;43.884;20.340;2023-04-21T12:26:16;12.80;;;6.70;;
54795;SDS011;40693;43.884;20.340;2023-04-21T12:28:42;14.07;;;7.25;;
54795;SDS011;40693;43.884;20.340;2023-04-21T12:31:08;10.93;;;6.13;;
54795;SDS011;40693;43.884;20.340;2023-04-21T12:33:34;11.90;;;7.80;;
54795;SDS011;40693;43.884;20.340;2023-04-21T12:36:00;10.32;;;6.90;;
54795;SDS011;40693;43.884;20.340;2023-04-21T12:38:26;17.90;;;7.38;;
54795;SDS011;40693;43.884;20.340;2023-04-21T12:40:51;13.18;;;8.55;;
54795;SDS011;40693;43.884;20.340;2023-04-21T12:43:17;10.55;;;7.85;;
54795;SDS011;40693;43.884;20.340;2023-04-21T12:45:43;13.55;;;7.03;;
54795;SDS011;40693;43.884;20.340;2023-04-21T12:48:08;12.00;;;6.85;;
54795;SDS011;40693;43.884;20.340;2023-04-21T12:50:34;16.63;;;8.88;;
54795;SDS011;40693;43.884;20.340;2023-04-21T12:53:00;10.63;;;7.28;;
54795;SDS011;40693;43.884;20.340;2023-04-21T12:55:26;17.90;;;6.57;;
54795;SDS011;40693;43.884;20.340;2023-04-21T12:57:51;15.85;;;7.07;;
54795;SDS011;40693;43.884;20.340;2023-04-21T13:00:17;14.98;;;7.80;;
54795;SDS011;40693;43.884;20.340;2023-04-21T13:02:43;13.25;;;7.22;;
54795;SDS011;40693;43.884;20.340;2023-04-21T13:05:09;11.23;;;6.30;;
54795;SDS011;40693;43.884;20.340;2023-04-21T13:07:36;13.32;;;6.72;;
54795;SDS011;40693;43.884;20.340;2023-04-21T13:10:03;17.70;;;7.20;;
54795;SDS011;40693;43.884;20.340;2023-04-21T13:12:30;20.25;;;8.02;;
54795;SDS011;40693;43.884;20.340;2023-04-21T13:14:56;13.73;;;7.30;;
54795;SDS011;40693;43.884;20.340;2023-04-21T13:17:22;11.73;;;6.80;;
54795;SDS011;40693;43.884;20.340;2023-04-21T13:19:48;14.95;;;9.00;;
54795;SDS011;40693;43.884;20.340;2023-04-21T13:22:14;33.70;;;14.73;;
54795;SDS011;40693;43.884;20.340;2023-04-21T13:24:40;55.90;;;26.98;;
54795;SDS011;40693;43.884;20.340;2023-04-21T13:27:05;24.13;;;12.85;;
54795;SDS011;40693;43.884;20.340;2023-04-21T13:29:31;15.05;;;7.15;;
54795;SDS011;40693;43.884;20.340;2023-04-21T13:31:59;14.57;;;7.47;;
54795;SDS011;40693;43.884;20.340;2023-04-21T13:34:25;11.38;;;6.80;;
54795;SDS011;40693;43.884;20.340;2023-04-21T13:36:52;13.20;;;7.32;;
54795;SDS011;40693;43.884;20.340;2023-04-21T13:39:18;12.00;;;6.88;;
54795;SDS011;40693;43.884;20.340;2023-04-21T13:41:43;13.10;;;7.03;;
54795;SDS011;40693;43.884;20.340;2023-04-21T13:44:09;11.38;;;6.90;;
54795;SDS011;40693;43.884;20.340;2023-04-21T13:46:36;11.98;;;8.38;;
54795;SDS011;40693;43.884;20.340;2023-04-21T13:49:02;13.15;;;7.30;;
54795;SDS011;40693;43.884;20.340;2023-04-21T13:51:27;11.30;;;6.57;;
54795;SDS011;40693;43.884;20.340;2023-04-21T13:53:54;13.40;;;8.18;;
54795;SDS011;40693;43.884;20.340;2023-04-21T13:56:20;14.45;;;8.85;;
54795;SDS011;40693;43.884;20.340;2023-04-21T13:58:45;15.45;;;7.18;;
54795;SDS011;40693;43.884;20.340;2023-04-21T14:01:12;16.65;;;8.02;;
54795;SDS011;40693;43.884;20.340;2023-04-21T14:03:38;17.60;;;7.95;;
54795;SDS011;40693;43.884;20.340;2023-04-21T14:06:04;15.73;;;8.68;;
54795;SDS011;40693;43.884;20.340;2023-04-21T14:08:30;19.13;;;9.70;;
54795;SDS011;40693;43.884;20.340;2023-04-21T14:10:56;15.70;;;9.13;;
54795;SDS011;40693;43.884;20.340;2023-04-21T14:13:22;17.08;;;8.45;;
54795;SDS011;40693;43.884;20.340;2023-04-21T14:15:48;14.75;;;7.13;;
54795;SDS011;40693;43.884;20.340;2023-04-21T14:18:14;22.30;;;8.98;;
54795;SDS011;40693;43.884;20.340;2023-04-21T14:20:40;17.13;;;7.65;;
54795;SDS011;40693;43.884;20.340;2023-04-21T14:23:06;14.38;;;6.60;;
54795;SDS011;40693;43.884;20.340;2023-04-21T14:25:31;26.27;;;8.80;;
54795;SDS011;40693;43.884;20.340;2023-04-21T14:27:57;15.95;;;7.85;;
54795;SDS011;40693;43.884;20.340;2023-04-21T14:30:23;14.15;;;7.95;;